Time;durP1;ratioP1;P1;durP2;ratioP2;P2;SDS_P1;SDS_P2;PMS_P1;PMS_P2;Temp;Humidity;BMP_temperature;BMP_pressure;BME280_temperature;BME280_humidity;BME280_pressure;Samples;Min_cycle;Max_cycle;Signal;HPM_P1;HPM_P2
2021/03/04 00:01:01;;;;;;;25.90;14.57;;;;;;;3.42;100.00;97079.50;5107566;27;20477;-55
2021/03/04 00:03:28;;;;;;;21.40;13.50;;;;;;;3.51;100.00;97071.16;5070341;28;20110;-58
2021/03/04 00:05:55;;;;;;;22.58;14.18;;;;;;;3.45;100.00;97068.91;5108352;28;20039;-57
2021/03/04 00:08:22;;;;;;;22.33;13.80;;;;;;;3.36;100.00;97066.78;5057896;28;20040;-58
2021/03/04 00:10:49;;;;;;;22.02;13.48;;;;;;;3.59;100.00;97062.06;5104100;28;20043;-58
2021/03/04 00:13:16;;;;;;;21.20;13.77;;;;;;;3.53;100.00;97056.25;5060234;28;20036;-58
2021/03/04 00:15:43;;;;;;;24.48;14.10;;;;;;;3.62;100.00;97060.13;5099528;28;20096;-58
2021/03/04 00:18:10;;;;;;;23.30;14.15;;;;;;;3.64;100.00;97057.41;5067296;28;20040;-56
2021/03/04 00:20:37;;;;;;;20.65;13.55;;;;;;;3.70;100.00;97049.25;5111656;27;20043;-57
2021/03/04 00:23:04;;;;;;;25.65;12.85;;;;;;;3.68;100.00;97051.97;5105273;28;20039;-56
2021/03/04 00:25:33;;;;;;;23.27;12.02;;;;;;;3.73;100.00;97049.06;5070722;28;20067;-58
2021/03/04 00:28:01;;;;;;;18.25;13.02;;;;;;;3.76;100.00;97048.91;5102197;28;20130;-54
2021/03/04 00:30:28;;;;;;;21.95;13.02;;;;;;;3.79;100.00;97046.97;5076626;28;20530;-56
2021/03/04 00:32:55;;;;;;;18.92;12.80;;;;;;;3.73;100.00;97043.88;5099250;28;20067;-56
2021/03/04 00:35:22;;;;;;;17.85;11.80;;;;;;;3.70;100.00;97050.09;5084260;27;20032;-51
2021/03/04 00:37:49;;;;;;;17.90;12.40;;;;;;;3.73;100.00;97041.25;5097305;27;20036;-52
2021/03/04 00:40:18;;;;;;;16.88;12.15;;;;;;;3.73;100.00;97038.66;5076742;27;20066;-56
2021/03/04 00:42:45;;;;;;;25.85;12.57;;;;;;;3.74;100.00;97035.09;5105570;27;20047;-56
2021/03/04 00:45:14;;;;;;;19.38;11.93;;;;;;;3.70;100.00;97038.81;5070613;27;20044;-51
2021/03/04 00:48:01;;;;;;;18.33;11.60;;;;;;;3.69;100.00;97040.59;5108035;28;20047;-50
2021/03/04 00:50:28;;;;;;;18.08;12.32;;;;;;;3.71;100.00;97030.91;5067900;28;20048;-52
2021/03/04 00:52:55;;;;;;;18.52;12.50;;;;;;;3.70;100.00;97029.22;5102501;28;20093;-53
2021/03/04 00:55:22;;;;;;;16.17;11.73;;;;;;;3.62;100.00;97028.00;5070373;28;20533;-54
2021/03/04 00:57:49;;;;;;;19.10;11.98;;;;;;;3.67;100.00;97025.94;5105140;27;20063;-55
2021/03/04 01:00:17;;;;;;;19.52;12.95;;;;;;;3.77;100.00;97012.28;5080459;27;20762;-53
2021/03/04 01:02:44;;;;;;;21.48;12.38;;;;;;;3.69;100.00;97011.06;5105762;27;20449;-55
2021/03/04 01:05:12;;;;;;;17.63;11.73;;;;;;;3.71;100.00;97010.03;5072361;27;20077;-54
2021/03/04 01:07:39;;;;;;;17.83;11.85;;;;;;;3.71;100.00;96999.59;5114107;27;20070;-54
2021/03/04 01:10:07;;;;;;;18.85;12.13;;;;;;;3.75;100.00;97000.25;5083514;27;20457;-52
2021/03/04 01:12:33;;;;;;;17.92;11.13;;;;;;;3.60;100.00;97008.97;5116203;27;20122;-54
2021/03/04 01:15:00;;;;;;;18.67;11.80;;;;;;;3.49;100.00;97004.38;5106965;27;20044;-54
2021/03/04 01:17:28;;;;;;;19.60;12.00;;;;;;;3.43;100.00;97002.94;5082377;27;20075;-53
2021/03/04 01:19:54;;;;;;;19.45;12.02;;;;;;;3.49;100.00;96986.97;5104196;27;20063;-54
2021/03/04 01:22:21;;;;;;;19.25;11.65;;;;;;;3.30;100.00;96979.38;5059563;28;20075;-53
2021/03/04 01:24:48;;;;;;;18.58;11.88;;;;;;;3.46;100.00;96989.75;5109494;27;20062;-53
2021/03/04 01:27:15;;;;;;;16.60;11.60;;;;;;;3.48;100.00;96987.91;5071667;27;20100;-54
2021/03/04 01:29:41;;;;;;;17.10;12.27;;;;;;;3.54;100.00;96989.31;5105532;28;20063;-53
2021/03/04 01:32:08;;;;;;;22.63;12.18;;;;;;;3.50;100.00;96987.81;5069922;28;20112;-51
2021/03/04 01:34:36;;;;;;;20.73;12.60;;;;;;;3.50;100.00;96977.38;5098652;28;20046;-52
2021/03/04 01:37:03;;;;;;;18.40;11.88;;;;;;;3.49;100.00;96973.94;5063230;28;20092;-54
2021/03/04 01:39:30;;;;;;;15.93;11.73;;;;;;;3.44;100.00;96960.34;5100968;28;20059;-50
2021/03/04 01:41:57;;;;;;;18.27;11.57;;;;;;;3.30;100.00;96965.47;5065042;28;20131;-54
2021/03/04 01:44:23;;;;;;;22.08;12.20;;;;;;;3.33;100.00;96962.69;5096689;28;20156;-50
2021/03/04 01:46:50;;;;;;;22.13;11.88;;;;;;;3.37;100.00;96955.53;5067499;28;20070;-49
2021/03/04 01:49:17;;;;;;;16.10;11.73;;;;;;;3.23;100.00;96951.94;5103475;28;20043;-51
2021/03/04 01:51:45;;;;;;;18.08;11.40;;;;;;;3.27;100.00;96948.25;5083650;28;20096;-49
2021/03/04 01:54:12;;;;;;;16.75;11.75;;;;;;;3.15;100.00;96945.50;5098199;28;20040;-53
2021/03/04 01:56:39;;;;;;;18.50;11.90;;;;;;;3.21;100.00;96943.41;5104883;28;20100;-51
2021/03/04 01:59:05;;;;;;;18.20;11.10;;;;;;;3.21;100.00;96943.41;5058486;28;20093;-54
2021/03/04 02:01:33;;;;;;;17.42;12.02;;;;;;;3.16;100.00;96941.97;5104087;28;20043;-51
2021/03/04 02:04:01;;;;;;;20.40;11.85;;;;;;;3.09;100.00;96944.06;5064831;28;20628;-55
2021/03/04 02:06:34;;;;;;;18.95;12.43;;;;;;;3.12;100.00;96930.03;5105379;28;20047;-52
2021/03/04 02:09:03;;;;;;;18.63;12.32;;;;;;;3.13;100.00;96929.09;5071469;28;20499;-55
2021/03/04 02:11:32;;;;;;;19.70;12.45;;;;;;;3.16;100.00;96923.72;5103981;28;20411;-52
2021/03/04 02:14:05;;;;;;;16.98;13.27;;;;;;;3.11;100.00;96925.78;5071310;28;20105;-55
2021/03/04 02:16:47;;;;;;;18.83;11.38;;;;;;;3.23;100.00;96915.47;5102323;28;20069;-53
2021/03/04 02:19:32;;;;;;;16.27;12.23;;;;;;;3.25;100.00;96910.19;5085705;27;20058;-52
2021/03/04 02:22:08;;;;;;;18.27;12.57;;;;;;;3.31;100.00;96908.06;5093242;28;20310;-53
2021/03/04 02:24:43;;;;;;;16.45;11.73;;;;;;;3.23;100.00;96909.41;5063264;28;20058;-54
2021/03/04 02:27:13;;;;;;;14.90;11.85;;;;;;;3.27;100.00;96901.34;5109117;28;20031;-55
2021/03/04 02:29:44;;;;;;;16.92;12.07;;;;;;;3.32;100.00;96896.69;5077140;28;20043;-51
2021/03/04 02:32:11;;;;;;;18.60;12.10;;;;;;;3.42;100.00;96896.16;5102296;28;20507;-53
2021/03/04 02:34:45;;;;;;;17.05;11.48;;;;;;;3.39;100.00;96893.72;5071220;28;20414;-55
2021/03/04 02:37:14;;;;;;;16.40;12.10;;;;;;;3.42;100.00;96897.00;5087633;28;20453;-54
2021/03/04 02:39:41;;;;;;;19.35;12.43;;;;;;;3.40;100.00;96898.00;5080883;28;20089;-58
2021/03/04 02:42:08;;;;;;;19.77;11.77;;;;;;;3.32;100.00;96901.06;5102674;27;20036;-53
2021/03/04 02:44:36;;;;;;;20.33;11.95;;;;;;;3.48;100.00;96898.44;5080965;27;20074;-52
2021/03/04 02:47:03;;;;;;;15.68;11.63;;;;;;;3.39;100.00;96907.59;5105688;27;20043;-54
2021/03/04 02:49:35;;;;;;;20.58;11.98;;;;;;;3.47;100.00;96909.75;5061559;28;20045;-54
2021/03/04 02:52:03;;;;;;;16.52;11.27;;;;;;;3.55;100.00;96895.34;5108050;28;20505;-55
2021/03/04 02:54:30;;;;;;;14.27;11.35;;;;;;;3.56;100.00;96894.41;5075222;28;20047;-54
2021/03/04 02:56:57;;;;;;;16.80;11.55;;;;;;;3.55;100.00;96891.91;5110880;27;20039;-56
2021/03/04 02:59:25;;;;;;;16.98;11.38;;;;;;;3.62;100.00;96889.78;5083255;27;20388;-52
2021/03/04 03:01:53;;;;;;;16.42;10.45;;;;;;;3.64;100.00;96888.75;5098485;28;20051;-53
2021/03/04 03:04:21;;;;;;;13.07;10.77;;;;;;;3.71;100.00;96887.44;5108305;28;20131;-54
2021/03/04 03:06:48;;;;;;;16.08;11.15;;;;;;;3.78;100.00;96888.75;5067903;27;20088;-55
2021/03/04 03:09:15;;;;;;;15.48;11.57;;;;;;;3.81;100.00;96885.13;5102331;27;20040;-57
2021/03/04 03:11:42;;;;;;;17.10;11.23;;;;;;;3.85;100.00;96881.38;5073130;27;20040;-54
2021/03/04 03:14:09;;;;;;;13.57;10.63;;;;;;;3.87;100.00;96884.75;5122503;27;20068;-55
2021/03/04 03:16:36;;;;;;;15.40;11.00;;;;;;;3.90;100.00;96878.53;5079795;27;20055;-53
2021/03/04 03:19:04;;;;;;;17.27;11.18;;;;;;;3.98;100.00;96881.50;5103376;27;20044;-52
2021/03/04 03:21:31;;;;;;;15.88;12.00;;;;;;;4.04;100.00;96886.34;5084904;27;20125;-57
2021/03/04 03:23:58;;;;;;;16.30;10.65;;;;;;;4.08;100.00;96872.16;5114710;27;20443;-50
2021/03/04 03:26:24;;;;;;;15.70;10.48;;;;;;;4.14;100.00;96878.78;5062152;28;20573;-54
2021/03/04 03:28:51;;;;;;;15.73;11.43;;;;;;;4.20;100.00;96875.81;5105338;27;20508;-57
2021/03/04 03:31:21;;;;;;;15.30;11.00;;;;;;;4.22;100.00;96873.94;5076935;27;20474;-54
2021/03/04 03:33:51;;;;;;;16.25;11.43;;;;;;;4.27;100.00;96874.50;5110846;27;20101;-54
2021/03/04 03:36:18;;;;;;;19.08;11.27;;;;;;;4.27;100.00;96877.09;5070298;27;20448;-56
2021/03/04 03:38:46;;;;;;;15.27;10.85;;;;;;;4.28;100.00;96879.59;5097843;28;20507;-53
2021/03/04 03:41:13;;;;;;;14.95;10.63;;;;;;;4.37;100.00;96878.22;5079079;28;20048;-56
2021/03/04 03:43:42;;;;;;;17.33;10.80;;;;;;;4.30;100.00;96876.88;5102197;28;20044;-55
2021/03/04 03:46:11;;;;;;;14.50;10.50;;;;;;;4.37;100.00;96882.56;5088404;28;20089;-52
2021/03/04 03:48:38;;;;;;;11.80;10.05;;;;;;;4.21;100.00;96882.69;5095980;27;20548;-57
2021/03/04 03:51:05;;;;;;;14.45;10.50;;;;;;;4.12;100.00;96883.25;5109304;28;20036;-54
2021/03/04 03:53:34;;;;;;;18.27;10.63;;;;;;;4.27;100.00;96877.94;5107886;28;20111;-57
2021/03/04 03:56:01;;;;;;;14.68;10.88;;;;;;;4.42;100.00;96877.91;4998009;27;20407;-58
2021/03/04 03:58:28;;;;;;;14.32;10.65;;;;;;;4.31;100.00;96880.38;5092243;28;20036;-56
2021/03/04 04:00:56;;;;;;;16.45;10.55;;;;;;;4.35;100.00;96877.47;5060037;27;20135;-58
2021/03/04 04:03:23;;;;;;;17.23;11.38;;;;;;;4.42;100.00;96877.91;5102503;28;20495;-55
2021/03/04 04:05:52;;;;;;;13.55;10.50;;;;;;;4.35;100.00;96877.47;5071315;27;20123;-54
2021/03/04 04:08:19;;;;;;;14.20;11.02;;;;;;;4.53;100.00;96871.06;5113642;27;20067;-54
2021/03/04 04:10:47;;;;;;;14.15;10.43;;;;;;;4.66;100.00;96867.69;5070366;27;20088;-54
2021/03/04 04:13:17;;;;;;;13.70;10.65;;;;;;;4.70;100.00;96875.22;5093827;27;20092;-54
2021/03/04 04:15:44;;;;;;;16.00;11.63;;;;;;;4.71;100.00;96873.44;5074350;28;20036;-54
2021/03/04 04:18:12;;;;;;;15.80;11.10;;;;;;;4.73;100.00;96867.19;5096778;28;20047;-55
2021/03/04 04:20:49;;;;;;;14.90;11.13;;;;;;;4.59;100.00;96856.78;5105083;28;20044;-55
2021/03/04 04:23:17;;;;;;;15.48;10.40;;;;;;;4.64;100.00;96861.69;5063560;28;20411;-53
2021/03/04 04:25:48;;;;;;;14.00;10.45;;;;;;;4.67;100.00;96864.13;5104103;27;20067;-53
2021/03/04 04:28:16;;;;;;;14.63;11.18;;;;;;;4.65;100.00;96860.78;5071169;28;20040;-53
2021/03/04 04:30:43;;;;;;;15.07;10.77;;;;;;;4.66;100.00;96859.84;5088612;28;20048;-55
2021/03/04 04:33:09;;;;;;;14.88;11.30;;;;;;;4.49;100.00;96864.38;5059784;28;20047;-57
2021/03/04 04:35:37;;;;;;;14.27;10.48;;;;;;;4.55;100.00;96854.47;5102234;28;20041;-55
2021/03/04 04:38:04;;;;;;;17.48;11.10;;;;;;;4.52;100.00;96851.13;5068977;27;20513;-49
2021/03/04 04:40:30;;;;;;;16.30;11.00;;;;;;;4.59;100.00;96850.72;5107309;28;20052;-52
2021/03/04 04:42:58;;;;;;;16.70;10.75;;;;;;;4.60;100.00;96850.63;5056175;28;20071;-53
2021/03/04 04:45:25;;;;;;;15.07;10.60;;;;;;;4.64;100.00;96846.88;5108178;28;20120;-55
2021/03/04 04:47:52;;;;;;;13.55;9.90;;;;;;;4.46;100.00;96841.06;5063941;27;20519;-55
2021/03/04 04:50:19;;;;;;;17.10;10.50;;;;;;;4.57;100.00;96840.38;5098855;27;20042;-53
2021/03/04 04:52:46;;;;;;;16.10;10.82;;;;;;;4.64;100.00;96839.03;5056950;27;20105;-55
2021/03/04 04:55:14;;;;;;;15.75;10.00;;;;;;;4.60;100.00;96829.72;5097644;28;20036;-56
2021/03/04 04:57:41;;;;;;;20.05;10.32;;;;;;;4.52;100.00;96829.38;5068721;27;20051;-56
2021/03/04 05:00:10;;;;;;;14.30;9.85;;;;;;;4.39;100.00;96831.94;5103921;27;20670;-55
2021/03/04 05:02:38;;;;;;;14.68;10.20;;;;;;;4.40;100.00;96832.78;5052391;28;20043;-56
2021/03/04 05:05:07;;;;;;;11.63;10.18;;;;;;;4.24;100.00;96828.53;5093859;28;20549;-57
2021/03/04 05:07:34;;;;;;;14.68;9.90;;;;;;;4.28;100.00;96831.78;5103258;28;20391;-54
2021/03/04 05:10:01;;;;;;;13.93;10.00;;;;;;;4.31;100.00;96821.16;5070826;28;20587;-53
2021/03/04 05:12:28;;;;;;;15.20;9.70;;;;;;;4.32;100.00;96822.81;5087323;28;20062;-55
2021/03/04 05:14:56;;;;;;;13.80;10.00;;;;;;;4.39;100.00;96818.03;5076699;27;20032;-58
2021/03/04 05:17:23;;;;;;;20.30;10.50;;;;;;;4.42;100.00;96817.84;5105318;28;20397;-52
2021/03/04 05:19:51;;;;;;;14.52;10.50;;;;;;;4.36;100.00;96813.84;5064155;27;20050;-57
2021/03/04 05:22:17;;;;;;;13.05;10.00;;;;;;;4.39;100.00;96812.81;5087323;28;20043;-55
2021/03/04 05:24:44;;;;;;;13.55;10.32;;;;;;;4.44;100.00;96816.81;5069332;27;20176;-53
2021/03/04 05:27:11;;;;;;;13.68;10.02;;;;;;;4.44;100.00;96810.75;5113989;27;20071;-54
2021/03/04 05:29:38;;;;;;;13.73;10.02;;;;;;;4.33;100.00;96814.03;5066273;28;20072;-57
2021/03/04 05:32:06;;;;;;;13.85;10.38;;;;;;;4.28;100.00;96809.13;5098678;28;20063;-58
2021/03/04 05:34:34;;;;;;;13.70;10.00;;;;;;;4.39;100.00;96807.59;5048930;28;20040;-55
2021/03/04 05:37:01;;;;;;;14.93;10.35;;;;;;;4.48;100.00;96797.41;5108427;28;20043;-57
2021/03/04 05:39:28;;;;;;;15.40;10.05;;;;;;;4.55;100.00;96802.25;5081303;27;20051;-58
2021/03/04 05:41:56;;;;;;;13.30;10.07;;;;;;;4.52;100.00;96798.06;5099770;28;20059;-56
2021/03/04 05:44:23;;;;;;;13.60;10.15;;;;;;;4.65;100.00;96798.09;5058280;28;20098;-55
2021/03/04 05:46:51;;;;;;;13.65;10.02;;;;;;;4.35;100.00;96806.13;5090381;28;20048;-58
2021/03/04 05:49:19;;;;;;;16.48;9.75;;;;;;;4.60;100.00;96790.53;5093884;28;20073;-55
2021/03/04 05:52:00;;;;;;;16.33;9.43;;;;;;;4.77;100.00;96792.06;5104295;28;20089;-54
2021/03/04 05:54:27;;;;;;;17.35;9.82;;;;;;;4.60;100.00;96800.16;5092254;28;20041;-54
2021/03/04 05:56:56;;;;;;;17.27;10.20;;;;;;;4.62;100.00;96796.53;5088457;28;20104;-58
2021/03/04 05:59:23;;;;;;;15.68;9.43;;;;;;;4.69;100.00;96797.78;5103588;28;20436;-56
2021/03/04 06:01:51;;;;;;;13.68;9.98;;;;;;;4.52;100.00;96800.66;5044388;28;20388;-55
2021/03/04 06:04:18;;;;;;;15.93;9.70;;;;;;;4.68;100.00;96793.50;5095631;28;20046;-55
2021/03/04 06:06:46;;;;;;;16.50;10.75;;;;;;;4.63;100.00;96794.75;5065830;28;20055;-57
2021/03/04 06:09:13;;;;;;;19.58;13.00;;;;;;;4.76;100.00;96793.00;5097035;28;20064;-57
2021/03/04 06:11:40;;;;;;;24.10;13.95;;;;;;;4.86;100.00;96798.47;5073168;28;20135;-58
2021/03/04 06:14:07;;;;;;;36.45;20.98;;;;;;;4.95;100.00;96795.22;5099687;28;20080;-53
2021/03/04 06:16:34;;;;;;;39.17;24.67;;;;;;;4.99;100.00;96797.56;5056374;28;20063;-53
2021/03/04 06:19:01;;;;;;;31.92;18.42;;;;;;;5.00;100.00;96799.22;5102820;27;20130;-55
2021/03/04 06:21:29;;;;;;;18.88;12.23;;;;;;;5.07;100.00;96790.97;5076135;28;20425;-56
2021/03/04 06:23:57;;;;;;;15.63;10.10;;;;;;;5.08;100.00;96793.47;5104253;28;20102;-52
2021/03/04 06:26:38;;;;;;;19.63;9.68;;;;;;;5.14;100.00;96790.47;5077048;28;20569;-50
2021/03/04 06:29:13;;;;;;;15.63;10.07;;;;;;;4.94;100.00;96785.72;5104611;28;20032;-55
2021/03/04 06:31:40;;;;;;;17.60;9.70;;;;;;;5.17;100.00;96787.66;5070236;28;20044;-53
2021/03/04 06:34:17;;;;;;;12.45;8.65;;;;;;;5.17;100.00;96786.81;5101330;28;20043;-54
2021/03/04 06:36:55;;;;;;;17.40;9.85;;;;;;;5.27;100.00;96784.41;5057915;28;20441;-55
2021/03/04 06:39:22;;;;;;;14.60;9.35;;;;;;;5.30;100.00;96778.94;5103075;28;20064;-55
2021/03/04 06:42:04;;;;;;;17.95;9.13;;;;;;;5.34;100.00;96783.06;5058728;28;20043;-57
2021/03/04 06:44:42;;;;;;;17.10;10.25;;;;;;;5.36;100.00;96774.16;5098743;28;20136;-51
2021/03/04 06:47:09;;;;;;;12.00;8.95;;;;;;;5.37;100.00;96780.25;5060339;28;20446;-58
2021/03/04 06:49:37;;;;;;;12.27;8.85;;;;;;;5.38;100.00;96781.91;5099321;28;20079;-58
2021/03/04 06:52:05;;;;;;;14.82;9.48;;;;;;;5.56;100.00;96779.81;5078271;28;20092;-57
2021/03/04 06:54:32;;;;;;;13.02;8.40;;;;;;;5.59;100.00;96772.56;5115139;27;20039;-54
2021/03/04 06:57:09;;;;;;;15.43;9.00;;;;;;;5.70;100.00;96771.81;5085651;27;20456;-52
2021/03/04 06:59:40;;;;;;;15.30;9.13;;;;;;;5.77;100.00;96767.84;5099834;28;20090;-57
2021/03/04 07:02:07;;;;;;;20.13;10.18;;;;;;;5.81;100.00;96761.44;5089652;28;20040;-55
2021/03/04 07:04:34;;;;;;;13.00;8.85;;;;;;;5.74;100.00;96761.97;5087609;27;20107;-58
2021/03/04 07:07:01;;;;;;;16.15;9.85;;;;;;;5.87;100.00;96774.09;5110042;28;20507;-54
2021/03/04 07:09:28;;;;;;;18.80;9.90;;;;;;;5.68;100.00;96773.72;5065347;27;20127;-56
2021/03/04 07:11:55;;;;;;;16.02;9.55;;;;;;;5.83;100.00;96772.66;5111069;27;20059;-57
2021/03/04 07:14:23;;;;;;;13.15;9.00;;;;;;;5.94;100.00;96775.38;5074305;27;20089;-55
2021/03/04 07:16:50;;;;;;;12.52;8.57;;;;;;;6.06;100.00;96767.63;5105663;27;20561;-58
2021/03/04 07:19:18;;;;;;;12.25;9.55;;;;;;;6.12;100.00;96780.25;5082589;27;20585;-56
2021/03/04 07:21:45;;;;;;;16.92;9.45;;;;;;;6.14;100.00;96767.91;5105892;27;20471;-57
2021/03/04 07:24:12;;;;;;;14.10;9.00;;;;;;;6.26;100.00;96761.75;5081324;27;20499;-62
2021/03/04 07:26:39;;;;;;;15.77;8.88;;;;;;;6.38;100.00;96773.16;5110437;27;20049;-56
2021/03/04 07:29:07;;;;;;;17.02;9.13;;;;;;;6.52;100.00;96764.28;5065628;27;20494;-57
2021/03/04 07:31:37;;;;;;;14.20;8.43;;;;;;;6.51;100.00;96766.06;5108760;28;20124;-57
2021/03/04 07:34:10;;;;;;;14.13;8.30;;;;;;;6.50;100.00;96766.16;5068027;28;20126;-60
2021/03/04 07:36:37;;;;;;;12.77;8.55;;;;;;;6.47;100.00;96759.41;5104479;28;20063;-57
2021/03/04 07:39:06;;;;;;;17.55;7.88;;;;;;;6.56;100.00;96760.50;5071148;28;20070;-56
2021/03/04 07:41:40;;;;;;;14.98;8.48;;;;;;;6.66;100.00;96749.22;5106730;27;20035;-55
2021/03/04 07:44:08;;;;;;;17.70;9.02;;;;;;;6.77;100.00;96758.91;5066393;27;20075;-58
2021/03/04 07:46:38;;;;;;;16.55;8.80;;;;;;;6.60;100.00;96754.06;5107172;27;20036;-56
2021/03/04 07:49:07;;;;;;;23.70;9.15;;;;;;;6.83;100.00;96747.13;5061141;28;20048;-58
2021/03/04 07:51:44;;;;;;;13.70;7.90;;;;;;;7.11;100.00;96735.41;5094050;28;20071;-56
2021/03/04 07:54:11;;;;;;;12.38;8.07;;;;;;;7.13;100.00;96736.97;5069848;28;20071;-55
2021/03/04 07:56:38;;;;;;;18.67;8.65;;;;;;;7.36;100.00;96734.34;5096340;27;20135;-58
2021/03/04 07:59:11;;;;;;;13.93;8.40;;;;;;;7.59;100.00;96724.72;5096332;28;20040;-57
2021/03/04 08:01:40;;;;;;;14.82;8.02;;;;;;;7.55;100.00;96728.53;5078765;27;20407;-57
2021/03/04 08:04:18;;;;;;;12.20;8.00;;;;;;;7.57;100.00;96737.09;5096110;28;20040;-55
2021/03/04 08:06:47;;;;;;;16.73;7.80;;;;;;;7.63;100.00;96725.31;5070551;27;20036;-58
2021/03/04 08:09:24;;;;;;;15.18;8.35;;;;;;;7.82;100.00;96722.91;5101714;28;20152;-54
2021/03/04 08:11:50;;;;;;;13.95;8.07;;;;;;;7.96;100.00;96719.19;5064223;28;20064;-57
2021/03/04 08:14:27;;;;;;;13.93;7.75;;;;;;;7.59;100.00;96720.28;5105856;28;20067;-56
2021/03/04 08:16:55;;;;;;;16.63;7.47;;;;;;;7.67;100.00;96714.44;5067927;27;20036;-58
2021/03/04 08:19:26;;;;;;;14.52;7.35;;;;;;;7.78;100.00;96711.84;5104098;28;20050;-55
2021/03/04 08:21:53;;;;;;;;;;;;;;;7.92;100.00;96699.41;5087484;27;20074;-57
2021/03/04 08:24:20;;;;;;;14.07;7.80;;;;;;;7.88;100.00;96704.06;5105005;27;19928;-58
2021/03/04 08:26:49;;;;;;;15.50;7.22;;;;;;;8.11;100.00;96711.88;5071296;27;20118;-57
2021/03/04 08:29:16;;;;;;;14.00;7.75;;;;;;;7.87;100.00;96697.13;5099716;27;20444;-57
2021/03/04 08:31:44;;;;;;;11.43;7.30;;;;;;;8.03;100.00;96694.13;5059427;28;20063;-55
2021/03/04 08:34:12;;;;;;;16.20;7.30;;;;;;;8.52;100.00;96692.78;5107400;28;20529;-55
2021/03/04 08:36:40;;;;;;;12.30;7.28;;;;;;;8.19;100.00;96691.94;5066161;27;20093;-58
2021/03/04 08:39:07;;;;;;;14.07;7.40;;;;;;;8.71;100.00;96695.56;5108122;28;20063;-59
2021/03/04 08:41:34;;;;;;;16.55;6.95;;;;;;;8.76;97.50;96696.00;5062903;27;20112;-57
2021/03/04 08:44:12;;;;;;;17.85;7.63;;;;;;;8.93;97.71;96685.88;5094743;28;20044;-58
2021/03/04 08:46:40;;;;;;;21.40;7.45;;;;;;;8.91;93.03;96690.44;5054143;27;20043;-57
2021/03/04 08:49:08;;;;;;;16.35;7.43;;;;;;;8.92;89.17;96679.81;5105956;27;20040;-57
2021/03/04 08:51:41;;;;;;;16.20;7.35;;;;;;;9.01;91.81;96675.53;5082998;27;20096;-52
2021/03/04 08:54:19;;;;;;;16.38;7.72;;;;;;;9.32;86.74;96678.19;5106877;28;20139;-55
2021/03/04 08:56:52;;;;;;;13.60;7.05;;;;;;;9.20;87.78;96678.28;5070482;28;20123;-53
2021/03/04 08:59:23;;;;;;;17.08;7.50;;;;;;;9.62;83.64;96680.81;5101397;27;20032;-58
2021/03/04 09:01:50;;;;;;;17.65;7.93;;;;;;;9.77;82.56;96683.91;5074812;28;20131;-56
2021/03/04 09:04:20;;;;;;;15.02;7.30;;;;;;;9.68;80.72;96679.47;5098984;27;20118;-59
2021/03/04 09:06:48;;;;;;;16.13;7.13;;;;;;;9.61;77.29;96668.63;5100822;28;20098;-59
2021/03/04 09:09:23;;;;;;;15.13;7.47;;;;;;;10.09;75.09;96670.56;5067923;27;20071;-57
2021/03/04 09:11:50;;;;;;;15.02;7.45;;;;;;;10.15;71.44;96667.38;5102876;28;20056;-59
2021/03/04 09:14:17;;;;;;;15.15;8.25;;;;;;;10.41;65.91;96665.06;5062173;27;20063;-58
2021/03/04 09:16:48;;;;;;;18.83;7.60;;;;;;;10.36;62.40;96661.19;5112629;27;20089;-58
2021/03/04 09:19:24;;;;;;;12.48;7.20;;;;;;;10.50;66.60;96652.03;5074231;28;20044;-57
2021/03/04 09:21:52;;;;;;;13.38;6.95;;;;;;;10.86;60.76;96639.91;5095879;28;25401;-59
2021/03/04 09:24:32;;;;;;;9.60;6.88;;;;;;;10.78;57.49;96645.91;5085969;27;20043;-59
2021/03/04 09:27:02;;;;;;;14.35;7.88;;;;;;;10.61;57.11;96647.44;5100878;28;20031;-58
2021/03/04 09:29:31;;;;;;;12.55;7.22;;;;;;;10.53;55.89;96634.13;5066131;27;20456;-58
2021/03/04 09:31:58;;;;;;;13.55;7.20;;;;;;;10.69;55.61;96637.00;5104182;28;20059;-56
2021/03/04 09:34:32;;;;;;;11.55;7.18;;;;;;;10.52;54.56;96629.81;5062502;28;20506;-57
2021/03/04 09:37:05;;;;;;;17.08;8.45;;;;;;;10.52;58.53;96635.09;5104065;28;20499;-58
2021/03/04 09:39:40;;;;;;;13.48;8.15;;;;;;;10.58;56.84;96628.44;5061994;28;20521;-53
2021/03/04 09:42:07;;;;;;;13.02;8.18;;;;;;;10.74;57.40;96628.69;5097925;28;20090;-56
2021/03/04 09:44:48;;;;;;;17.05;8.63;;;;;;;10.65;56.87;96625.06;5074058;28;20036;-58
2021/03/04 09:47:22;;;;;;;17.80;8.25;;;;;;;10.73;58.57;96618.25;5102910;28;20059;-57
2021/03/04 09:49:49;;;;;;;16.58;8.50;;;;;;;10.60;58.21;96608.03;5077252;28;20039;-56
2021/03/04 09:52:19;;;;;;;21.35;8.95;;;;;;;10.68;58.81;96608.16;5094595;28;20068;-57
2021/03/04 09:55:04;;;;;;;15.65;8.45;;;;;;;10.75;57.85;96603.97;5060045;28;20044;-59
2021/03/04 09:57:32;;;;;;;14.93;8.90;;;;;;;10.89;60.17;96606.16;5097366;28;20040;-50
2021/03/04 09:59:59;;;;;;;14.48;9.02;;;;;;;10.84;60.64;96607.53;5068759;28;20130;-57
2021/03/04 10:02:26;;;;;;;15.70;9.50;;;;;;;10.45;59.66;96599.69;5097042;28;20060;-56
2021/03/04 10:04:54;;;;;;;18.60;10.23;;;;;;;10.77;59.86;96599.41;5062057;28;20606;-57
2021/03/04 10:07:24;;;;;;;21.60;10.10;;;;;;;10.72;59.25;96593.69;5113956;28;20098;-59
2021/03/04 10:09:51;;;;;;;16.65;10.27;;;;;;;10.96;59.42;96593.22;5070043;27;20044;-58
2021/03/04 10:12:18;;;;;;;19.63;10.93;;;;;;;10.98;60.96;96595.69;5108354;28;20039;-57
2021/03/04 10:14:46;;;;;;;18.20;9.55;;;;;;;11.04;59.34;96587.22;5057273;28;20051;-60
2021/03/04 10:17:13;;;;;;;19.13;10.77;;;;;;;10.95;59.64;96585.47;5091728;28;20081;-59
2021/03/04 10:19:40;;;;;;;19.17;11.25;;;;;;;11.06;55.20;96582.63;5105346;28;20044;-59
2021/03/04 10:22:07;;;;;;;19.17;10.70;;;;;;;10.86;59.46;96580.06;5068225;28;20097;-58
2021/03/04 10:24:35;;;;;;;22.65;11.05;;;;;;;10.91;56.64;96569.09;5100812;28;20039;-59
2021/03/04 10:27:02;;;;;;;16.85;10.05;;;;;;;10.81;56.29;96570.94;5077509;28;20061;-57
2021/03/04 10:29:29;;;;;;;18.02;10.35;;;;;;;10.71;55.72;96563.03;5100300;28;20043;-60
2021/03/04 10:31:57;;;;;;;17.02;10.32;;;;;;;10.84;58.01;96566.19;5073918;27;20119;-58
2021/03/04 10:34:24;;;;;;;20.67;11.80;;;;;;;10.98;57.26;96567.53;5109135;28;20043;-58
2021/03/04 10:36:51;;;;;;;23.90;11.38;;;;;;;11.15;57.52;96566.78;5072020;27;22780;-56
2021/03/04 10:39:19;;;;;;;17.58;10.30;;;;;;;10.95;56.74;96561.72;5112591;28;20047;-53
2021/03/04 10:41:48;;;;;;;16.63;10.02;;;;;;;10.97;57.67;96557.94;5069509;28;20051;-58
2021/03/04 10:44:15;;;;;;;20.50;10.93;;;;;;;10.98;55.62;96556.13;5107474;28;20056;-60
2021/03/04 10:46:42;;;;;;;18.58;10.45;;;;;;;11.31;61.34;96554.75;5077176;27;20039;-59
2021/03/04 10:49:09;;;;;;;20.38;10.82;;;;;;;11.46;60.47;96553.28;5105156;28;20063;-55
2021/03/04 10:51:36;;;;;;;19.20;11.05;;;;;;;11.71;57.67;96553.53;5064734;27;20070;-59
2021/03/04 10:54:03;;;;;;;16.25;9.57;;;;;;;11.90;57.26;96553.41;5106660;28;20071;-57
2021/03/04 10:56:30;;;;;;;22.05;10.32;;;;;;;11.78;53.20;96544.88;5069723;27;22171;-58
2021/03/04 10:58:58;;;;;;;21.33;10.10;;;;;;;12.15;49.51;96533.34;5108230;27;20444;-51
2021/03/04 11:01:24;;;;;;;19.38;9.60;;;;;;;12.41;55.36;96535.19;5089765;27;20046;-57
2021/03/04 11:03:52;;;;;;;14.93;9.25;;;;;;;12.37;51.10;96532.03;5090494;27;20494;-58
2021/03/04 11:06:19;;;;;;;17.42;9.77;;;;;;;12.37;48.79;96531.19;5112480;27;20035;-57
2021/03/04 11:08:45;;;;;;;17.15;10.30;;;;;;;12.16;47.68;96520.97;5080717;27;20161;-59
2021/03/04 11:11:13;;;;;;;17.35;9.63;;;;;;;12.45;49.07;96516.22;5102759;27;20087;-57
2021/03/04 11:13:39;;;;;;;18.60;10.98;;;;;;;12.43;50.99;96510.25;5065403;27;20067;-57
2021/03/04 11:16:07;;;;;;;14.40;9.27;;;;;;;12.49;49.13;96511.44;5109046;28;21202;-56
2021/03/04 11:18:34;;;;;;;16.58;9.75;;;;;;;12.44;50.72;96516.38;5062530;28;20027;-57
2021/03/04 11:21:01;;;;;;;16.13;7.97;;;;;;;12.76;50.28;96513.91;5108035;28;20046;-56
2021/03/04 11:23:28;;;;;;;15.77;9.60;;;;;;;12.78;48.30;96506.66;5061011;28;20047;-55
2021/03/04 11:25:59;;;;;;;15.63;9.18;;;;;;;12.86;51.13;96492.63;5102823;28;20121;-57
2021/03/04 11:28:26;;;;;;;16.58;9.13;;;;;;;12.65;49.66;96490.38;5079558;27;20058;-58